Time;durP1;ratioP1;P1;durP2;ratioP2;P2;SDS_P1;SDS_P2;PMS_P1;PMS_P2;Temp;Humidity;BMP_temperature;BMP_pressure;BME280_temperature;BME280_humidity;BME280_pressure;Samples;Min_cycle;Max_cycle;Signal;HPM_P1;HPM_P2
2023/10/27 00:02:17;;;;;;;3.50;1.93;;;;;;;;;;5093284;28;20435;-76
2023/10/27 00:04:44;;;;;;;2.40;1.57;;;;;;;;;;5093525;28;20524;-76
2023/10/27 00:07:11;;;;;;;3.13;2.00;;;;;;;;;;5093218;28;20467;-76
2023/10/27 00:09:39;;;;;;;4.17;1.90;;;;;;;;;;5093063;28;20904;-76
2023/10/27 00:12:08;;;;;;;2.60;1.93;;;;;;;;;;5093459;28;20938;-76
2023/10/27 00:14:36;;;;;;;5.00;2.20;;;;;;;;;;5093493;28;20431;-76
2023/10/27 00:17:03;;;;;;;3.13;1.93;;;;;;;;;;5093519;28;20471;-76
2023/10/27 00:19:30;;;;;;;4.90;1.60;;;;;;;;;;5093316;28;20492;-76
2023/10/27 00:21:57;;;;;;;4.10;1.80;;;;;;;;;;5092815;28;20471;-76
2023/10/27 00:24:25;;;;;;;3.90;1.40;;;;;;;;;;5093253;28;20463;-77
2023/10/27 00:26:52;;;;;;;3.07;1.10;;;;;;;;;;5093139;28;20445;-76
2023/10/27 00:29:21;;;;;;;3.93;1.40;;;;;;;;;;5093038;28;20439;-77
2023/10/27 00:31:48;;;;;;;2.53;1.27;;;;;;;;;;5093352;28;20508;-76
2023/10/27 00:34:15;;;;;;;2.63;1.23;;;;;;;;;;5093358;28;20488;-76
2023/10/27 00:36:42;;;;;;;2.70;1.13;;;;;;;;;;5092785;28;20547;-76
2023/10/27 00:39:09;;;;;;;5.53;1.00;;;;;;;;;;5093142;28;20493;-76
2023/10/27 00:41:37;;;;;;;5.23;2.53;;;;;;;;;;5093176;28;20479;-76
2023/10/27 00:44:04;;;;;;;2.77;1.10;;;;;;;;;;5093243;28;20869;-77
2023/10/27 00:46:32;;;;;;;2.20;0.90;;;;;;;;;;5092898;28;20473;-76
2023/10/27 00:49:00;;;;;;;2.80;1.07;;;;;;;;;;5092844;28;20432;-76
2023/10/27 00:51:27;;;;;;;2.97;1.00;;;;;;;;;;5092384;28;20454;-76
2023/10/27 00:53:54;;;;;;;3.90;1.40;;;;;;;;;;5093107;28;20767;-76
2023/10/27 00:56:22;;;;;;;2.17;1.10;;;;;;;;;;5092903;28;20459;-76
2023/10/27 00:58:49;;;;;;;2.57;1.27;;;;;;;;;;5092812;28;20474;-76
2023/10/27 01:01:17;;;;;;;2.63;1.00;;;;;;;;;;5093049;28;20466;-76
2023/10/27 01:03:46;;;;;;;7.20;0.90;;;;;;;;;;5092011;28;20949;-76
2023/10/27 01:06:14;;;;;;;5.53;1.93;;;;;;;;;;5095108;28;20463;-76
2023/10/27 01:08:41;;;;;;;4.30;1.00;;;;;;;;;;5096594;28;20435;-76
2023/10/27 01:11:09;;;;;;;2.07;0.80;;;;;;;;;;5096894;28;20474;-76
2023/10/27 01:13:36;;;;;;;2.40;0.90;;;;;;;;;;5096773;28;20481;-76
2023/10/27 01:16:04;;;;;;;3.70;1.03;;;;;;;;;;5096385;28;20466;-76
2023/10/27 01:18:31;;;;;;;3.80;1.40;;;;;;;;;;5096415;28;20987;-76
2023/10/27 01:21:00;;;;;;;2.10;1.00;;;;;;;;;;5096620;28;20460;-76
2023/10/27 01:23:28;;;;;;;2.43;0.80;;;;;;;;;;5096649;28;20482;-76
2023/10/27 01:25:55;;;;;;;3.30;1.13;;;;;;;;;;5096020;28;20467;-76
2023/10/27 01:28:22;;;;;;;3.17;1.10;;;;;;;;;;5096403;28;20424;-77
2023/10/27 01:30:50;;;;;;;2.40;1.00;;;;;;;;;;5096355;28;20492;-76
2023/10/27 01:33:17;;;;;;;2.10;1.27;;;;;;;;;;5095561;28;20530;-76
2023/10/27 01:35:44;;;;;;;3.10;0.80;;;;;;;;;;5096064;28;20998;-76
2023/10/27 01:38:11;;;;;;;3.07;1.00;;;;;;;;;;5096176;28;20464;-76
2023/10/27 01:40:40;;;;;;;4.57;1.17;;;;;;;;;;5096331;28;20463;-76
2023/10/27 01:43:07;;;;;;;5.63;1.10;;;;;;;;;;5096064;28;20796;-77
2023/10/27 01:45:37;;;;;;;2.73;0.90;;;;;;;;;;5096007;28;20499;-76
2023/10/27 01:48:04;;;;;;;2.70;1.17;;;;;;;;;;5095850;28;20848;-76
2023/10/27 01:50:31;;;;;;;2.47;1.17;;;;;;;;;;5095649;28;20938;-76
2023/10/27 01:52:58;;;;;;;2.20;1.10;;;;;;;;;;5095563;28;20439;-77
2023/10/27 01:55:25;;;;;;;2.23;0.90;;;;;;;;;;5095882;28;20850;-76
2023/10/27 01:57:54;;;;;;;2.40;1.00;;;;;;;;;;5094730;28;20443;-76
2023/10/27 02:00:21;;;;;;;2.20;0.70;;;;;;;;;;5095305;28;20471;-76
2023/10/27 02:02:48;;;;;;;3.53;0.80;;;;;;;;;;5095372;28;20465;-76
2023/10/27 02:05:15;;;;;;;1.90;0.60;;;;;;;;;;5095308;28;20529;-76
2023/10/27 02:07:43;;;;;;;1.90;0.70;;;;;;;;;;5095601;28;20459;-76
2023/10/27 02:10:10;;;;;;;2.27;0.80;;;;;;;;;;5095644;28;20789;-76
2023/10/27 02:12:37;;;;;;;2.00;0.93;;;;;;;;;;5095589;28;20435;-76
2023/10/27 02:15:08;;;;;;;2.20;0.90;;;;;;;;;;5095237;28;20447;-76
2023/10/27 02:17:36;;;;;;;2.43;0.93;;;;;;;;;;5094627;28;20838;-76
2023/10/27 02:20:03;;;;;;;2.50;1.07;;;;;;;;;;5095225;28;20463;-76
2023/10/27 02:22:30;;;;;;;3.93;1.30;;;;;;;;;;5095416;28;20424;-77
2023/10/27 02:24:57;;;;;;;5.03;0.90;;;;;;;;;;5095078;28;20553;-76
2023/10/27 02:27:24;;;;;;;3.10;0.97;;;;;;;;;;5094791;28;20432;-76
2023/10/27 02:29:52;;;;;;;2.37;0.80;;;;;;;;;;5095123;28;20480;-76
2023/10/27 02:32:20;;;;;;;2.80;0.87;;;;;;;;;;5094490;28;20512;-76
2023/10/27 02:34:47;;;;;;;5.23;1.10;;;;;;;;;;5095342;28;20432;-76
2023/10/27 02:37:14;;;;;;;2.73;1.30;;;;;;;;;;5094789;28;20478;-76
2023/10/27 02:39:42;;;;;;;4.13;1.20;;;;;;;;;;5094946;28;20512;-76
2023/10/27 02:42:09;;;;;;;2.40;1.00;;;;;;;;;;5094767;28;20459;-76
2023/10/27 02:44:36;;;;;;;1.77;0.70;;;;;;;;;;5094387;28;20467;-76
2023/10/27 02:47:03;;;;;;;2.30;1.20;;;;;;;;;;5094885;28;20931;-76
2023/10/27 02:49:32;;;;;;;3.10;0.93;;;;;;;;;;5094700;28;20477;-76
2023/10/27 02:51:59;;;;;;;4.00;1.10;;;;;;;;;;5094758;28;20447;-76
2023/10/27 02:54:26;;;;;;;2.23;0.90;;;;;;;;;;5094646;28;20439;-76
2023/10/27 02:56:53;;;;;;;3.10;1.17;;;;;;;;;;5094789;28;20474;-76
2023/10/27 02:59:21;;;;;;;3.70;1.10;;;;;;;;;;5093878;28;20463;-76
2023/10/27 03:01:48;;;;;;;2.63;1.20;;;;;;;;;;5094803;28;20460;-76
2023/10/27 03:04:15;;;;;;;3.00;1.10;;;;;;;;;;5094413;28;20448;-76
2023/10/27 03:06:44;;;;;;;2.40;1.00;;;;;;;;;;5094430;28;20472;-76
2023/10/27 03:09:11;;;;;;;2.30;1.10;;;;;;;;;;5094361;28;20435;-76
2023/10/27 03:11:38;;;;;;;2.93;1.10;;;;;;;;;;5094088;28;20445;-76
2023/10/27 03:14:06;;;;;;;2.30;1.00;;;;;;;;;;5094115;28;20990;-76
2023/10/27 03:16:34;;;;;;;3.50;1.03;;;;;;;;;;5093937;28;20444;-76
2023/10/27 03:19:02;;;;;;;3.83;1.10;;;;;;;;;;5093433;28;20443;-76
2023/10/27 03:21:29;;;;;;;2.73;0.90;;;;;;;;;;5093977;28;20458;-77
2023/10/27 03:23:58;;;;;;;3.23;1.33;;;;;;;;;;5093693;28;20439;-76
2023/10/27 03:26:25;;;;;;;2.50;1.27;;;;;;;;;;5093752;28;20988;-76
2023/10/27 03:28:52;;;;;;;2.10;0.80;;;;;;;;;;5093507;28;21005;-76
2023/10/27 03:31:20;;;;;;;9.07;1.30;;;;;;;;;;5094074;28;20436;-76
2023/10/27 03:33:47;;;;;;;4.30;1.50;;;;;;;;;;5094017;28;20447;-76
2023/10/27 03:36:14;;;;;;;3.10;1.27;;;;;;;;;;5093702;28;20474;-76
2023/10/27 03:38:41;;;;;;;2.20;0.80;;;;;;;;;;5093853;28;20489;-76
2023/10/27 03:41:10;;;;;;;2.33;1.10;;;;;;;;;;5093928;28;20480;-76
2023/10/27 03:43:40;;;;;;;2.60;1.13;;;;;;;;;;5093891;28;20533;-76
2023/10/27 03:46:08;;;;;;;2.83;0.90;;;;;;;;;;5093397;28;20475;-77
2023/10/27 03:48:35;;;;;;;3.53;1.00;;;;;;;;;;5093824;28;20468;-76
2023/10/27 03:51:04;;;;;;;3.60;1.43;;;;;;;;;;5094117;28;20471;-76
2023/10/27 03:53:32;;;;;;;2.70;0.83;;;;;;;;;;5093610;28;20432;-76
2023/10/27 03:55:59;;;;;;;2.90;1.13;;;;;;;;;;5093302;28;20497;-76
2023/10/27 03:58:28;;;;;;;2.17;1.00;;;;;;;;;;5093237;28;20460;-76
2023/10/27 04:00:55;;;;;;;2.80;1.10;;;;;;;;;;5093236;28;20431;-76
2023/10/27 04:03:23;;;;;;;4.47;1.83;;;;;;;;;;5093642;28;20467;-76
2023/10/27 04:05:52;;;;;;;3.10;1.70;;;;;;;;;;5093185;28;20467;-76
2023/10/27 04:08:19;;;;;;;4.37;2.00;;;;;;;;;;5093182;28;20432;-76
2023/10/27 04:10:46;;;;;;;3.90;1.53;;;;;;;;;;5093599;28;20463;-76
2023/10/27 04:13:14;;;;;;;3.07;1.70;;;;;;;;;;5092690;28;20440;-76
2023/10/27 04:15:44;;;;;;;4.00;1.70;;;;;;;;;;5072857;28;20437;-76
2023/10/27 04:18:11;;;;;;;3.13;1.30;;;;;;;;;;5072981;28;20906;-76
2023/10/27 04:20:39;;;;;;;2.90;1.67;;;;;;;;;;5073295;28;20464;-76
2023/10/27 04:23:08;;;;;;;2.53;1.70;;;;;;;;;;5073474;28;20667;-76
2023/10/27 04:25:37;;;;;;;3.03;1.53;;;;;;;;;;5073329;28;20476;-76
2023/10/27 04:28:04;;;;;;;7.25;1.30;;;;;;;;;;5077082;28;20444;-76
2023/10/27 04:30:33;;;;;;;5.20;1.47;;;;;;;;;;5092961;28;20189;-76
2023/10/27 04:33:04;;;;;;;7.73;3.73;;;;;;;;;;5093180;28;20444;-76
2023/10/27 04:35:31;;;;;;;3.10;2.13;;;;;;;;;;5093700;28;20515;-76
2023/10/27 04:37:59;;;;;;;2.90;1.50;;;;;;;;;;5093231;28;20463;-76
2023/10/27 04:40:28;;;;;;;3.20;1.80;;;;;;;;;;5094187;28;20901;-76
2023/10/27 04:42:58;;;;;;;3.57;1.80;;;;;;;;;;5096597;28;20463;-76
2023/10/27 04:45:25;;;;;;;3.27;1.93;;;;;;;;;;5097302;28;20467;-76
2023/10/27 04:47:52;;;;;;;10.00;3.27;;;;;;;;;;5096692;28;20440;-76
2023/10/27 04:50:21;;;;;;;3.00;1.90;;;;;;;;;;5097244;28;20481;-77
2023/10/27 04:52:49;;;;;;;4.07;1.97;;;;;;;;;;5096499;28;20960;-76
2023/10/27 04:55:19;;;;;;;3.33;1.80;;;;;;;;;;5097020;28;20431;-76
2023/10/27 04:57:46;;;;;;;3.70;2.13;;;;;;;;;;5097107;28;20420;-76
2023/10/27 05:00:14;;;;;;;2.80;1.70;;;;;;;;;;5096770;28;20435;-76
2023/10/27 05:02:42;;;;;;;3.20;1.80;;;;;;;;;;5096855;28;20427;-76
2023/10/27 05:05:11;;;;;;;3.40;2.00;;;;;;;;;;5096972;28;20467;-76
2023/10/27 05:07:40;;;;;;;5.27;2.50;;;;;;;;;;5093533;28;20193;-76
2023/10/27 05:10:08;;;;;;;5.10;2.85;;;;;;;;;;5096039;28;20440;-76
2023/10/27 05:12:36;;;;;;;7.75;3.70;;;;;;;;;;5096513;28;20193;-76
2023/10/27 05:15:05;;;;;;;7.63;4.18;;;;;;;;;;5095838;28;20194;-76
2023/10/27 05:17:39;;;;;;;6.30;3.42;;;;;;;;;;5095986;28;20197;-76
2023/10/27 05:20:07;;;;;;;7.90;4.10;;;;;;;;;;5093898;28;20309;-76
2023/10/27 05:22:35;;;;;;;5.10;3.17;;;;;;;;;;5095346;28;20197;-77
2023/10/27 05:25:06;;;;;;;4.50;2.60;;;;;;;;;;5095944;28;20442;-76
2023/10/27 05:27:35;;;;;;;4.17;2.83;;;;;;;;;;5095493;28;20448;-77
2023/10/27 05:30:03;;;;;;;3.75;2.53;;;;;;;;;;5095262;28;20440;-76
2023/10/27 05:32:32;;;;;;;4.13;2.17;;;;;;;;;;5095885;28;20204;-76
2023/10/27 05:35:00;;;;;;;3.10;2.00;;;;;;;;;;5094599;28;20938;-76
2023/10/27 05:37:31;;;;;;;3.77;2.43;;;;;;;;;;5078119;28;20786;-77
2023/10/27 05:39:58;;;;;;;4.00;2.83;;;;;;;;;;5094953;28;20762;-77
2023/10/27 05:42:28;;;;;;;4.17;3.07;;;;;;;;;;5095224;28;20910;-77
2023/10/27 05:44:55;;;;;;;3.30;2.30;;;;;;;;;;5094644;28;20442;-77
2023/10/27 05:47:31;;;;;;;5.73;3.00;;;;;;;;;;5094044;28;21008;-77
2023/10/27 05:49:58;;;;;;;20.07;17.03;;;;;;;;;;5094351;28;20428;-76
2023/10/27 05:52:26;;;;;;;12.10;9.10;;;;;;;;;;5094917;28;20511;-76
2023/10/27 05:54:54;;;;;;;4.77;3.50;;;;;;;;;;5094221;28;20435;-76
2023/10/27 05:57:24;;;;;;;7.13;2.63;;;;;;;;;;5094608;28;20463;-76
2023/10/27 05:59:56;;;;;;;5.50;2.43;;;;;;;;;;5093807;28;20431;-76
2023/10/27 06:02:23;;;;;;;3.57;2.50;;;;;;;;;;5094858;28;20481;-76
2023/10/27 06:04:51;;;;;;;3.60;2.47;;;;;;;;;;5094793;28;20431;-76
2023/10/27 06:07:18;;;;;;;4.90;2.57;;;;;;;;;;5094854;28;20478;-76
2023/10/27 06:09:46;;;;;;;5.13;2.70;;;;;;;;;;5094291;28;21005;-76
2023/10/27 06:12:15;;;;;;;15.80;3.97;;;;;;;;;;5094989;28;20441;-77
2023/10/27 06:14:45;;;;;;;11.43;3.60;;;;;;;;;;5094820;28;20851;-76
2023/10/27 06:17:14;;;;;;;5.50;2.43;;;;;;;;;;5094571;28;20436;-76
2023/10/27 06:19:42;;;;;;;3.47;2.27;;;;;;;;;;5094447;28;20459;-76
2023/10/27 06:22:10;;;;;;;3.70;2.40;;;;;;;;;;5094616;28;20440;-76
2023/10/27 06:24:39;;;;;;;4.40;3.40;;;;;;;;;;5094193;28;20431;-76
2023/10/27 06:27:07;;;;;;;12.37;8.10;;;;;;;;;;5094752;28;20573;-76
2023/10/27 06:29:35;;;;;;;20.97;12.80;;;;;;;;;;5094509;28;20439;-76
2023/10/27 06:32:03;;;;;;;19.43;10.40;;;;;;;;;;5093528;28;20482;-77
2023/10/27 06:34:32;;;;;;;10.70;6.83;;;;;;;;;;5093153;28;20435;-76
2023/10/27 06:37:02;;;;;;;7.23;4.10;;;;;;;;;;5073878;28;20449;-76
2023/10/27 06:39:29;;;;;;;6.97;4.70;;;;;;;;;;5092766;28;20440;-76
2023/10/27 06:41:56;;;;;;;5.00;2.47;;;;;;;;;;5074220;28;20433;-76
2023/10/27 06:44:24;;;;;;;3.60;1.97;;;;;;;;;;5077375;28;20439;-76
2023/10/27 06:46:53;;;;;;;10.23;2.10;;;;;;;;;;5094271;28;21049;-76
2023/10/27 06:49:20;;;;;;;2.77;1.67;;;;;;;;;;5094217;28;20444;-76
2023/10/27 06:51:49;;;;;;;2.80;2.07;;;;;;;;;;5094230;28;20501;-76
2023/10/27 06:54:18;;;;;;;3.30;1.80;;;;;;;;;;5094357;28;20795;-76
2023/10/27 06:56:45;;;;;;;3.03;1.90;;;;;;;;;;5094099;28;20469;-76
2023/10/27 06:59:13;;;;;;;3.33;1.90;;;;;;;;;;5094575;28;20496;-76
2023/10/27 07:01:40;;;;;;;3.97;1.87;;;;;;;;;;5094082;28;20468;-76
2023/10/27 07:04:08;;;;;;;2.73;1.57;;;;;;;;;;5093570;28;20468;-76
2023/10/27 07:06:35;;;;;;;3.90;1.33;;;;;;;;;;5094025;28;20472;-76
2023/10/27 07:09:04;;;;;;;1.80;0.70;;;;;;;;;;5094270;28;20436;-76
2023/10/27 07:11:31;;;;;;;2.00;0.83;;;;;;;;;;5094423;28;20794;-76
2023/10/27 07:13:59;;;;;;;2.63;1.63;;;;;;;;;;5093883;28;20436;-77
2023/10/27 07:16:26;;;;;;;3.70;2.40;;;;;;;;;;5093945;28;20495;-76
2023/10/27 07:18:53;;;;;;;4.90;1.90;;;;;;;;;;5093764;28;20910;-77
2023/10/27 07:21:20;;;;;;;2.30;1.07;;;;;;;;;;5094215;28;20957;-76
2023/10/27 07:23:47;;;;;;;2.10;0.90;;;;;;;;;;5093662;28;20428;-76
2023/10/27 07:26:17;;;;;;;1.90;0.70;;;;;;;;;;5093606;28;20499;-76
2023/10/27 07:28:44;;;;;;;2.40;0.97;;;;;;;;;;5094263;28;20444;-76
2023/10/27 07:31:11;;;;;;;2.00;0.77;;;;;;;;;;5093888;28;20432;-77
2023/10/27 07:33:39;;;;;;;1.67;0.60;;;;;;;;;;5093440;28;20492;-77
2023/10/27 07:36:07;;;;;;;1.70;0.60;;;;;;;;;;5093481;28;20944;-77
2023/10/27 07:38:34;;;;;;;1.90;0.70;;;;;;;;;;5093890;28;20436;-77
2023/10/27 07:41:03;;;;;;;1.70;0.60;;;;;;;;;;5093733;28;20529;-77
2023/10/27 07:43:32;;;;;;;2.03;0.60;;;;;;;;;;5093390;28;20895;-77
2023/10/27 07:46:01;;;;;;;1.70;0.67;;;;;;;;;;5093649;28;20498;-77
2023/10/27 07:48:31;;;;;;;1.70;0.60;;;;;;;;;;5093652;28;20428;-76
2023/10/27 07:50:59;;;;;;;1.63;0.60;;;;;;;;;;5094127;28;20436;-77
2023/10/27 07:53:26;;;;;;;1.80;0.67;;;;;;;;;;5093362;28;20446;-77
2023/10/27 07:55:54;;;;;;;1.70;0.60;;;;;;;;;;5093475;28;20435;-77
2023/10/27 07:58:22;;;;;;;2.00;0.60;;;;;;;;;;5093140;28;20435;-77
2023/10/27 08:00:51;;;;;;;2.00;0.70;;;;;;;;;;5093432;28;20529;-77
2023/10/27 08:03:18;;;;;;;1.70;0.50;;;;;;;;;;5093430;28;20785;-77
2023/10/27 08:05:46;;;;;;;1.80;0.60;;;;;;;;;;5092937;28;20463;-77
2023/10/27 08:08:13;;;;;;;1.70;0.50;;;;;;;;;;5093379;28;20432;-77
2023/10/27 08:10:42;;;;;;;1.80;0.70;;;;;;;;;;5093301;28;20423;-77
2023/10/27 08:13:09;;;;;;;1.60;0.50;;;;;;;;;;5092943;28;20493;-77
2023/10/27 08:15:36;;;;;;;1.70;0.50;;;;;;;;;;5094610;28;20438;-76
2023/10/27 08:18:06;;;;;;;1.80;0.53;;;;;;;;;;5097372;28;20908;-77
2023/10/27 08:20:33;;;;;;;1.80;0.60;;;;;;;;;;5097425;28;20553;-77
2023/10/27 08:23:00;;;;;;;1.70;0.50;;;;;;;;;;5097522;28;20796;-77
2023/10/27 08:25:27;;;;;;;2.53;0.60;;;;;;;;;;5097039;28;20459;-77
2023/10/27 08:27:55;;;;;;;2.00;0.50;;;;;;;;;;5097422;28;20481;-77
2023/10/27 08:30:22;;;;;;;1.77;0.53;;;;;;;;;;5097227;28;20432;-76
2023/10/27 08:32:49;;;;;;;5.07;0.60;;;;;;;;;;5096932;28;20466;-77
2023/10/27 08:35:18;;;;;;;2.10;0.53;;;;;;;;;;5097172;28;20432;-77
2023/10/27 08:37:45;;;;;;;2.13;0.60;;;;;;;;;;5097000;28;20821;-77
2023/10/27 08:40:12;;;;;;;1.70;0.53;;;;;;;;;;5097026;28;20435;-77
2023/10/27 08:42:40;;;;;;;1.80;0.60;;;;;;;;;;5097051;28;20427;-77
2023/10/27 08:45:07;;;;;;;1.90;0.60;;;;;;;;;;5097002;28;20496;-77
2023/10/27 08:47:36;;;;;;;2.00;0.90;;;;;;;;;;5096944;28;20564;-77
2023/10/27 08:50:04;;;;;;;2.23;0.70;;;;;;;;;;5096559;28;20439;-77
2023/10/27 08:52:33;;;;;;;1.70;0.60;;;;;;;;;;5096846;28;20518;-77
2023/10/27 08:55:02;;;;;;;1.90;0.80;;;;;;;;;;5096699;28;20471;-76
2023/10/27 08:57:29;;;;;;;2.00;0.70;;;;;;;;;;5096686;28;20791;-77
2023/10/27 08:59:56;;;;;;;2.53;0.80;;;;;;;;;;5096655;28;20496;-77
2023/10/27 09:02:30;;;;;;;3.30;0.60;;;;;;;;;;5096668;28;20442;-77
2023/10/27 09:05:02;;;;;;;2.63;0.80;;;;;;;;;;5096610;28;20474;-77
2023/10/27 09:07:30;;;;;;;1.80;0.60;;;;;;;;;;5096128;28;20478;-77
2023/10/27 09:09:59;;;;;;;1.77;0.60;;;;;;;;;;5096563;28;20453;-77
2023/10/27 09:12:29;;;;;;;1.70;0.53;;;;;;;;;;5096504;28;20458;-77
2023/10/27 09:15:00;;;;;;;1.70;0.60;;;;;;;;;;5096103;28;20951;-77
2023/10/27 09:17:29;;;;;;;1.73;0.60;;;;;;;;;;5096053;28;20480;-77
2023/10/27 09:20:06;;;;;;;2.20;0.60;;;;;;;;;;5095966;28;20516;-77
2023/10/27 09:22:33;;;;;;;3.40;0.60;;;;;;;;;;5096197;28;20427;-78
2023/10/27 09:25:17;;;;;;;1.90;0.60;;;;;;;;;;5095952;28;20492;-78
2023/10/27 09:27:46;;;;;;;2.83;0.63;;;;;;;;;;5094503;28;20475;-78
2023/10/27 09:30:14;;;;;;;1.80;0.50;;;;;;;;;;5095766;28;20442;-78
2023/10/27 09:32:44;;;;;;;2.00;0.60;;;;;;;;;;5096229;28;20432;-78
2023/10/27 09:35:13;;;;;;;2.13;0.57;;;;;;;;;;5096033;28;20424;-78
2023/10/27 09:37:42;;;;;;;2.10;0.80;;;;;;;;;;5096000;28;20477;-78
2023/10/27 09:40:11;;;;;;;2.23;0.60;;;;;;;;;;5095827;28;20504;-77
2023/10/27 09:42:38;;;;;;;3.40;0.70;;;;;;;;;;5095681;28;20953;-77
2023/10/27 09:45:11;;;;;;;3.80;0.73;;;;;;;;;;5095430;28;20457;-77
2023/10/27 09:47:45;;;;;;;1.80;0.60;;;;;;;;;;5095500;28;20464;-78
2023/10/27 09:50:14;;;;;;;2.40;0.77;;;;;;;;;;5095460;28;20420;-78
2023/10/27 09:52:43;;;;;;;2.20;0.80;;;;;;;;;;5095747;28;20836;-79
2023/10/27 09:55:13;;;;;;;2.47;0.80;;;;;;;;;;5095596;28;20489;-79
2023/10/27 09:57:42;;;;;;;2.30;0.60;;;;;;;;;;5095559;28;20837;-79
2023/10/27 10:00:13;;;;;;;4.47;1.83;;;;;;;;;;5095114;28;20465;-79
2023/10/27 10:02:42;;;;;;;2.30;0.60;;;;;;;;;;5095508;28;20437;-79
2023/10/27 10:05:11;;;;;;;2.20;0.70;;;;;;;;;;5095438;28;20459;-79
2023/10/27 10:07:44;;;;;;;2.60;0.70;;;;;;;;;;5095201;28;20771;-79
2023/10/27 10:10:17;;;;;;;2.30;0.60;;;;;;;;;;5094792;28;20480;-79
2023/10/27 10:13:19;;;;;;;3.90;0.90;;;;;;;;;;5094958;28;20432;-77
2023/10/27 10:15:53;;;;;;;3.60;0.60;;;;;;;;;;5052621;28;20851;-77
2023/10/27 10:18:41;;;;;;;5.40;0.83;;;;;;;;;;5052632;28;20456;-77
2023/10/27 10:21:08;;;;;;;2.30;0.60;;;;;;;;;;5079596;28;20470;-77
2023/10/27 10:24:07;;;;;;;2.60;0.80;;;;;;;;;;5095016;28;20913;-77
2023/10/27 10:26:49;;;;;;;1.80;0.60;;;;;;;;;;5095057;28;20434;-77
2023/10/27 10:29:32;;;;;;;1.97;0.60;;;;;;;;;;5086372;28;20439;-80
2023/10/27 10:32:15;;;;;;;2.70;0.70;;;;;;;;;;5094989;28;20480;-79
2023/10/27 10:35:03;;;;;;;2.03;0.53;;;;;;;;;;5094389;28;20843;-79
2023/10/27 10:37:31;;;;;;;1.90;0.60;;;;;;;;;;5093780;28;20517;-79
2023/10/27 10:40:16;;;;;;;2.27;0.80;;;;;;;;;;5094316;28;20781;-80
2023/10/27 10:43:02;;;;;;;2.10;0.60;;;;;;;;;;5094385;28;20962;-80
2023/10/27 10:45:32;;;;;;;2.80;0.67;;;;;;;;;;5094612;28;20509;-80
2023/10/27 10:48:00;;;;;;;5.20;0.67;;;;;;;;;;5094561;28;20430;-80
2023/10/27 10:50:31;;;;;;;2.50;0.80;;;;;;;;;;5094578;28;20477;-78
2023/10/27 10:53:11;;;;;;;2.87;0.77;;;;;;;;;;5094096;28;20839;-78
2023/10/27 10:55:38;;;;;;;2.00;0.60;;;;;;;;;;5094334;28;20415;-79
2023/10/27 10:58:05;;;;;;;2.00;0.60;;;;;;;;;;5094128;28;20470;-78
2023/10/27 11:00:36;;;;;;;2.67;0.90;;;;;;;;;;5093956;28;20913;-79
2023/10/27 11:03:07;;;;;;;2.10;0.60;;;;;;;;;;5094284;28;20431;-78
2023/10/27 11:05:35;;;;;;;2.13;0.60;;;;;;;;;;5093910;28;20438;-78
2023/10/27 11:08:03;;;;;;;2.23;0.60;;;;;;;;;;5093824;28;20917;-78
2023/10/27 11:10:32;;;;;;;2.20;0.70;;;;;;;;;;5093819;28;20521;-78
2023/10/27 11:13:03;;;;;;;1.90;0.60;;;;;;;;;;5094167;28;20427;-78
2023/10/27 11:15:48;;;;;;;3.00;0.80;;;;;;;;;;5093753;28;20446;-78
2023/10/27 11:18:19;;;;;;;3.60;0.97;;;;;;;;;;5093597;28;20932;-78
2023/10/27 11:20:49;;;;;;;2.40;0.70;;;;;;;;;;5093482;28;20469;-78
2023/10/27 11:23:17;;;;;;;2.30;0.90;;;;;;;;;;5093476;28;20436;-78
2023/10/27 11:25:45;;;;;;;2.33;0.93;;;;;;;;;;5093550;28;20519;-78
2023/10/27 11:28:22;;;;;;;4.23;0.90;;;;;;;;;;5093847;28;20832;-77
2023/10/27 11:30:59;;;;;;;2.20;0.70;;;;;;;;;;5093785;28;20427;-78
2023/10/27 11:33:27;;;;;;;2.30;0.70;;;;;;;;;;5093418;28;20465;-77
2023/10/27 11:35:56;;;;;;;2.57;1.17;;;;;;;;;;5093701;28;20473;-77
2023/10/27 11:38:24;;;;;;;7.43;1.00;;;;;;;;;;5093595;28;20568;-77
2023/10/27 11:40:52;;;;;;;4.17;0.90;;;;;;;;;;5093240;28;20518;-77
2023/10/27 11:43:19;;;;;;;2.33;0.60;;;;;;;;;;5093284;28;20500;-76
2023/10/27 11:45:47;;;;;;;1.80;0.60;;;;;;;;;;5093432;28;20437;-76
2023/10/27 11:48:14;;;;;;;4.00;0.80;;;;;;;;;;5093409;28;20576;-77
2023/10/27 11:50:41;;;;;;;3.83;0.53;;;;;;;;;;5093369;28;20431;-76
2023/10/27 11:53:10;;;;;;;4.53;1.57;;;;;;;;;;5093422;28;20443;-76
2023/10/27 11:55:37;;;;;;;2.13;0.70;;;;;;;;;;5093170;28;20488;-76
2023/10/27 11:58:04;;;;;;;4.00;1.60;;;;;;;;;;5093377;28;20455;-76
2023/10/27 12:00:32;;;;;;;3.87;0.93;;;;;;;;;;5093012;28;20435;-78
2023/10/27 12:03:00;;;;;;;2.70;0.97;;;;;;;;;;5092998;28;20442;-78
2023/10/27 12:05:27;;;;;;;5.40;2.30;;;;;;;;;;5093241;28;20841;-77
2023/10/27 12:07:55;;;;;;;2.63;0.93;;;;;;;;;;5092865;28;20441;-78
2023/10/27 12:10:23;;;;;;;2.10;0.73;;;;;;;;;;5093568;28;20446;-77
2023/10/27 12:12:51;;;;;;;2.67;0.80;;;;;;;;;;5093218;28;20806;-77
2023/10/27 12:15:18;;;;;;;2.30;0.77;;;;;;;;;;5092894;28;20431;-77
2023/10/27 12:17:46;;;;;;;2.00;0.70;;;;;;;;;;5092757;28;20470;-77
2023/10/27 12:20:13;;;;;;;2.77;0.70;;;;;;;;;;5093209;28;20460;-77
2023/10/27 12:22:45;;;;;;;2.77;0.67;;;;;;;;;;5092711;28;20593;-77
2023/10/27 12:25:12;;;;;;;2.97;0.60;;;;;;;;;;5092798;28;20455;-77
2023/10/27 12:27:42;;;;;;;2.60;0.73;;;;;;;;;;5093045;28;20431;-77
2023/10/27 12:30:10;;;;;;;2.23;0.80;;;;;;;;;;5093025;28;20432;-76
2023/10/27 12:32:38;;;;;;;2.23;0.70;;;;;;;;;;5092953;28;20442;-76
2023/10/27 12:35:06;;;;;;;2.30;0.67;;;;;;;;;;5093200;28;20510;-76
2023/10/27 12:37:34;;;;;;;3.70;0.60;;;;;;;;;;5092931;28;20471;-77
2023/10/27 12:40:02;;;;;;;2.47;0.50;;;;;;;;;;5092583;28;20439;-77
2023/10/27 12:42:29;;;;;;;4.00;1.70;;;;;;;;;;5092656;28;20437;-76
2023/10/27 12:44:59;;;;;;;2.00;0.50;;;;;;;;;;5092560;28;20481;-77
2023/10/27 12:47:32;;;;;;;3.17;0.80;;;;;;;;;;5092537;28;20436;-77
2023/10/27 12:49:59;;;;;;;1.70;0.50;;;;;;;;;;5092834;28;20769;-77
2023/10/27 12:52:29;;;;;;;1.97;0.50;;;;;;;;;;5092281;28;20423;-77
2023/10/27 12:54:59;;;;;;;1.80;0.60;;;;;;;;;;5092413;28;20464;-78
2023/10/27 12:57:26;;;;;;;2.00;0.50;;;;;;;;;;5092037;28;20443;-78
2023/10/27 12:59:54;;;;;;;3.23;1.40;;;;;;;;;;5092444;28;20446;-78
2023/10/27 13:02:23;;;;;;;3.03;0.80;;;;;;;;;;5095162;28;20490;-78
2023/10/27 13:04:52;;;;;;;3.00;0.57;;;;;;;;;;5096220;28;20436;-78
2023/10/27 13:07:19;;;;;;;1.90;0.50;;;;;;;;;;5096529;28;20431;-78
2023/10/27 13:09:47;;;;;;;1.90;0.60;;;;;;;;;;5096368;28;20466;-78
2023/10/27 13:12:15;;;;;;;1.90;0.60;;;;;;;;;;5096136;28;20459;-77
2023/10/27 13:14:43;;;;;;;1.90;0.50;;;;;;;;;;5096572;28;20431;-78
2023/10/27 13:17:10;;;;;;;2.87;0.60;;;;;;;;;;5096371;28;20435;-78
2023/10/27 13:19:39;;;;;;;2.23;0.60;;;;;;;;;;5095755;28;20518;-77
2023/10/27 13:22:06;;;;;;;2.07;0.77;;;;;;;;;;5096385;28;20411;-76
2023/10/27 13:24:34;;;;;;;3.37;1.70;;;;;;;;;;5096106;28;20423;-77
2023/10/27 13:27:01;;;;;;;2.20;0.63;;;;;;;;;;5096064;28;20523;-76
2023/10/27 13:29:31;;;;;;;2.10;0.60;;;;;;;;;;5096123;28;20482;-76
2023/10/27 13:31:58;;;;;;;2.20;0.90;;;;;;;;;;5096024;28;20523;-76
2023/10/27 13:34:26;;;;;;;2.63;1.10;;;;;;;;;;5095958;28;20485;-76
2023/10/27 13:36:57;;;;;;;7.50;4.43;;;;;;;;;;5095584;28;20443;-76
2023/10/27 13:39:25;;;;;;;3.50;1.03;;;;;;;;;;5095422;28;20507;-76
2023/10/27 13:41:52;;;;;;;2.90;1.00;;;;;;;;;;5095877;28;20794;-76
2023/10/27 13:44:21;;;;;;;3.50;1.00;;;;;;;;;;5095447;28;20435;-76
2023/10/27 13:46:48;;;;;;;1.97;0.60;;;;;;;;;;5095719;28;20474;-76
2023/10/27 13:49:15;;;;;;;1.70;0.50;;;;;;;;;;5095688;28;20443;-77
2023/10/27 13:51:43;;;;;;;3.37;0.83;;;;;;;;;;5095785;28;20512;-76
2023/10/27 13:54:11;;;;;;;3.20;0.60;;;;;;;;;;5095477;28;20435;-76
2023/10/27 13:56:39;;;;;;;2.83;1.17;;;;;;;;;;5095615;28;20485;-76
2023/10/27 13:59:07;;;;;;;7.67;5.53;;;;;;;;;;5095138;28;20508;-76
2023/10/27 14:01:35;;;;;;;2.83;0.97;;;;;;;;;;5095162;28;20472;-76
2023/10/27 14:04:03;;;;;;;2.00;0.70;;;;;;;;;;5095286;28;20455;-76
2023/10/27 14:06:32;;;;;;;3.10;0.80;;;;;;;;;;5095477;28;20459;-76
2023/10/27 14:08:59;;;;;;;2.10;0.70;;;;;;;;;;5094998;28;20442;-76
2023/10/27 14:11:28;;;;;;;2.20;0.80;;;;;;;;;;5095312;28;20432;-76
2023/10/27 14:13:55;;;;;;;2.60;0.90;;;;;;;;;;5093642;28;20436;-76
2023/10/27 14:16:23;;;;;;;2.20;0.80;;;;;;;;;;5094870;28;20440;-76
2023/10/27 14:18:51;;;;;;;2.60;0.93;;;;;;;;;;5095238;28;20797;-76
2023/10/27 14:21:18;;;;;;;2.07;0.77;;;;;;;;;;5095262;28;20464;-76
2023/10/27 14:23:46;;;;;;;2.77;0.97;;;;;;;;;;5095054;28;20976;-75
2023/10/27 14:26:15;;;;;;;3.17;0.70;;;;;;;;;;5094934;28;20428;-76
2023/10/27 14:28:44;;;;;;;2.40;0.70;;;;;;;;;;5094532;28;20435;-76
2023/10/27 14:31:14;;;;;;;4.13;0.90;;;;;;;;;;5094518;28;20497;-76
2023/10/27 14:33:42;;;;;;;3.10;1.30;;;;;;;;;;5094512;28;20431;-76
2023/10/27 14:36:12;;;;;;;4.10;1.67;;;;;;;;;;5094441;28;20510;-76
2023/10/27 14:38:40;;;;;;;5.27;2.70;;;;;;;;;;5094268;28;20463;-76
2023/10/27 14:41:09;;;;;;;6.33;1.50;;;;;;;;;;5094676;28;20447;-77
2023/10/27 14:43:40;;;;;;;4.53;1.63;;;;;;;;;;5094240;28;20439;-76
2023/10/27 14:46:11;;;;;;;14.47;9.47;;;;;;;;;;5094209;28;20438;-76
2023/10/27 14:48:39;;;;;;;2.40;0.80;;;;;;;;;;5094815;28;20428;-75
2023/10/27 14:51:13;;;;;;;2.20;0.60;;;;;;;;;;5094469;28;20454;-76
2023/10/27 14:53:40;;;;;;;2.00;0.70;;;;;;;;;;5094512;28;20427;-75